Latest Weather Observations for Nambour

IDQ60801

Issued at 10:32 am EST Wednesday 29 July 2015 (issued every 30 minutes, with the page automatically refreshed every 10 minutes)

About weather observations | Map of weather stations | Latest weather observations for QLD | Other Formats
Station Details ID: 040988 Name: NAMBOUR DAFF - HILLSIDE Lat: -26.64 Lon: 152.94 Height: 53.24 m
Data from the previous 72 hours. | See also: Recent months at Nambour
Date/Time
EST
Temp
°C
App
Temp
°C
Dew
Point
Rel
Hum
%
Delta-T
°C
Wind Press
QNH
hPa
Press
MSL
hPa
Rain
since 9 am
mm
Dir
 
Spd
km/h
Gust
km/h
Spd
kts
Gust
kts
29/10:30am 18.1 15.9 6.3 46 5.8 SE 7 19 4 10 1031.4 1031.4 0.0
29/10:00am 17.7 14.9 5.3 44 5.9 SE 9 20 5 11 1031.6 1031.6 0.0
29/09:30am 17.5 15.3 5.4 45 5.9 SE 6 11 3 6 1031.7 1031.7 0.0
29/09:00am 16.9 14.7 5.2 46 5.6 SSE 6 15 3 8 1031.5 1031.5 0.0
29/08:30am 16.3 14.3 6.2 51 4.9 S 6 13 3 7 1031.6 1031.6 0.0
29/08:00am 15.7 14.0 7.7 59 4.0 SSW 6 17 3 9 1031.5 1031.5 0.0
29/07:30am 13.8 12.7 6.9 63 3.4 W 2 6 1 3 1031.4 1031.4 0.0
29/07:00am 11.7 10.1 6.4 70 2.5 SW 4 9 2 5 1031.0 1031.0 0.0
29/06:30am 11.2 9.5 6.1 71 2.4 WSW 4 11 2 6 1030.5 1030.5 0.0
29/06:00am 10.5 9.7 6.5 76 1.9 CALM 0 6 0 3 1030.3 1030.3 0.0
29/05:30am 10.8 9.6 6.4 74 2.1 WSW 2 4 1 2 1029.9 1029.8 0.0
29/05:00am 10.8 9.6 6.6 75 2.0 SW 2 4 1 2 1029.6 1029.5 0.0
29/04:30am 11.2 9.2 6.3 72 2.3 WSW 6 7 3 4 1029.5 1029.4 0.0
29/04:00am 11.2 9.5 6.1 71 2.4 SW 4 7 2 4 1029.6 1029.5 0.0
29/03:30am 11.7 9.7 6.2 69 2.6 SW 6 9 3 5 1029.7 1029.6 0.0
29/03:00am 11.3 9.7 6.4 72 2.3 SW 4 11 2 6 1030.1 1030.0 0.0
29/02:30am 11.3 10.4 6.0 70 2.5 CALM 0 4 0 2 1030.1 1030.0 0.0
29/02:00am 11.3 10.3 5.4 67 2.7 CALM 0 0 0 0 1030.0 1029.9 0.0
29/01:30am 12.0 10.9 5.2 63 3.1 CALM 0 2 0 1 1030.1 1030.0 0.0
29/01:00am 12.7 10.7 6.1 64 3.1 SW 6 9 3 5 1030.2 1030.1 0.0
29/12:30am 12.7 11.6 6.7 67 2.9 NE 2 7 1 4 1030.2 1030.1 0.0
29/12:00am 12.9 12.2 7.1 68 2.8 CALM 0 0 0 0 1030.2 1030.1 0.0
 
Date/Time
EST
Temp
°C
App
Temp
°C
Dew
Point
Rel
Hum
%
Delta-T
°C
Wind Press
QNH
hPa
Press
MSL
hPa
Rain
since 9 am
mm
Dir
 
Spd
km/h
Gust
km/h
Spd
kts
Gust
kts
28/11:30pm 12.9 12.3 7.4 69 2.7 CALM 0 4 0 2 1030.3 1030.3 0.0
28/11:00pm 12.4 11.7 6.9 69 2.6 CALM 0 6 0 3 1030.4 1030.4 0.0
28/10:30pm 13.1 12.0 7.1 67 2.9 SW 2 6 1 3 1030.5 1030.5 0.0
28/10:00pm 13.5 12.6 7.7 68 2.8 SW 2 6 1 3 1030.6 1030.6 0.0
28/09:30pm 13.2 12.4 8.1 71 2.5 WSW 2 6 1 3 1030.5 1030.5 0.0
28/09:00pm 13.0 12.2 8.1 72 2.4 SW 2 6 1 3 1030.6 1030.6 0.0
28/08:30pm 12.4 11.9 7.7 73 2.3 CALM 0 4 0 2 1030.5 1030.5 0.0
28/08:00pm 12.5 12.0 8.0 74 2.2 CALM 0 4 0 2 1030.3 1030.3 0.0
28/07:30pm 12.4 11.9 7.9 74 2.2 CALM 0 0 0 0 1030.1 1030.0 0.0
28/07:00pm 12.9 12.1 8.2 73 2.3 SW 2 6 1 3 1029.9 1029.8 0.0
28/06:30pm 12.8 12.4 8.3 74 2.2 CALM 0 0 0 0 1029.6 1029.5 0.0
28/06:00pm 13.4 13.0 8.3 71 2.5 CALM 0 0 0 0 1029.3 1029.2 0.0
28/05:30pm 14.4 13.7 8.6 68 2.9 SW 2 4 1 2 1028.9 1028.8 0.0
28/05:00pm 16.0 15.6 8.2 60 3.9 CALM 0 0 0 0 1028.7 1028.6 0.0
28/04:30pm 17.3 15.7 7.9 54 4.8 ESE 6 11 3 6 1028.4 1028.3 0.0
28/04:00pm 17.8 16.2 7.8 52 5.1 ESE 6 11 3 6 1028.3 1028.2 0.0
28/03:30pm 18.0 15.8 8.0 52 5.1 ESE 9 15 5 8 1028.2 1028.1 0.0
28/03:00pm 18.2 16.6 8.7 54 4.9 ESE 7 13 4 7 1028.0 1027.9 0.0
28/02:30pm 18.3 16.5 9.4 56 4.7 ESE 9 17 5 9 1028.0 1027.9 0.0
28/02:00pm 18.0 16.4 8.8 55 4.7 ESE 7 13 4 7 1028.1 1028.0 0.0
28/01:30pm 19.0 17.9 8.6 51 5.4 SE 4 9 2 5 1028.3 1028.2 0.0
28/01:00pm 18.2 16.5 8.2 52 5.1 SE 7 17 4 9 1028.6 1028.5 0.0
28/12:30pm 19.3 17.8 9.2 52 5.3 E 7 17 4 9 1028.8 1028.7 0.0
28/12:00pm 19.3 17.8 8.6 50 5.5 W 6 17 3 9 1029.0 1028.9 0.0
28/11:30am 18.8 17.1 8.5 51 5.3 SSW 7 17 4 9 1029.3 1029.2 0.0
28/11:00am 18.6 16.6 8.6 52 5.2 ESE 9 20 5 11 1029.4 1029.3 0.0
28/10:30am 18.3 16.7 8.6 53 5.0 ESE 7 19 4 10 1029.8 1029.7 0.0
28/10:00am 17.6 15.7 7.6 52 5.0 SE 7 19 4 10 1029.9 1029.8 0.0
28/09:30am 17.6 15.7 6.8 49 5.4 S 6 17 3 9 1029.9 1029.8 0.0
28/09:00am 17.0 15.1 6.8 51 5.0 SSW 6 15 3 8 1029.6 1029.5 0.0
28/08:30am 16.7 15.3 7.1 53 4.8 SE 4 13 2 7 1029.2 1029.1 0.0
28/08:00am 15.8 14.5 7.6 58 4.1 SSW 4 9 2 5 1029.1 1029.0 0.0
28/07:30am 14.9 13.9 7.5 61 3.7 W 2 9 1 5 1028.7 1028.6 0.0
28/07:00am 14.0 12.9 6.8 62 3.5 SSE 2 7 1 4 1028.4 1028.3 0.0
28/06:30am 13.8 13.2 7.3 65 3.2 CALM 0 2 0 1 1027.9 1027.8 0.0
28/06:00am 13.7 13.1 7.5 66 3.0 CALM 0 2 0 1 1027.4 1027.4 0.0
28/05:30am 13.9 13.0 7.7 66 3.1 S 2 9 1 5 1027.0 1027.0 0.0
28/05:00am 13.4 12.7 7.0 65 3.1 CALM 0 4 0 2 1026.8 1026.8 0.0
28/04:30am 13.4 11.8 6.3 62 3.4 SW 4 9 2 5 1026.7 1026.7 0.0
28/04:00am 13.4 11.5 5.1 57 3.8 SSW 4 11 2 6 1026.4 1026.4 0.0
28/03:30am 12.7 10.9 3.6 54 4.1 SSE 2 6 1 3 1026.3 1026.3 0.0
28/03:00am 13.1 9.9 2.9 50 4.5 SW 9 15 5 8 1026.1 1026.1 0.0
28/02:30am 12.6 10.7 2.7 51 4.3 SSE 2 6 1 3 1025.9 1025.9 0.0
28/02:00am 13.3 9.6 2.5 48 4.7 SW 11 17 6 9 1026.1 1026.1 0.0
28/01:30am 13.4 9.7 2.6 48 4.8 SW 11 17 6 9 1026.1 1026.1 0.0
28/01:00am 13.5 9.8 2.4 47 4.8 SW 11 20 6 11 1026.4 1026.4 0.0
28/12:30am 13.6 9.5 2.5 47 4.9 SW 13 22 7 12 1026.0 1026.0 0.0
28/12:00am 13.8 10.2 2.7 47 4.9 SW 11 20 6 11 1026.3 1026.3 0.0
 
Date/Time
EST
Temp
°C
App
Temp
°C
Dew
Point
Rel
Hum
%
Delta-T
°C
Wind Press
QNH
hPa
Press
MSL
hPa
Rain
since 9 am
mm
Dir
 
Spd
km/h
Gust
km/h
Spd
kts
Gust
kts
27/11:30pm 14.0 11.3 2.9 47 5.0 SW 6 11 3 6 1026.6 1026.6 0.0
27/11:00pm 14.0 11.7 2.9 47 4.9 SSE 4 13 2 7 1026.7 1026.7 0.0
27/10:30pm 14.6 12.0 3.4 47 5.1 SW 6 17 3 9 1026.3 1026.3 0.0
27/10:00pm 14.8 12.3 3.9 48 5.0 SW 6 9 3 5 1026.2 1026.2 0.0
27/09:30pm 15.6 13.2 4.3 47 5.3 SSW 6 15 3 8 1026.0 1026.0 0.0
27/09:00pm 16.2 13.8 4.3 45 5.5 SW 6 13 3 7 1025.4 1025.4 0.0
27/08:30pm 16.9 13.6 4.3 43 5.9 SW 11 22 6 12 1025.2 1025.2 0.0
27/08:00pm 16.4 14.6 5.4 48 5.3 SSW 4 7 2 4 1025.1 1025.1 0.0
27/07:30pm 16.9 15.4 5.2 46 5.6 S 2 7 1 4 1024.9 1024.9 0.0
27/07:00pm 17.1 15.7 5.7 47 5.5 SSW 2 7 1 4 1024.7 1024.7 0.0
27/06:30pm 17.5 16.5 5.8 46 5.7 CALM 0 4 0 2 1024.4 1024.4 0.0
27/06:00pm 17.9 16.2 5.8 45 5.9 WSW 4 7 2 4 1023.7 1023.7 0.0
27/05:30pm 17.9 16.6 5.8 45 5.9 SW 2 7 1 4 1023.3 1023.3 0.0
27/05:00pm 19.1 16.9 5.2 40 6.7 W 6 11 3 6 1023.0 1023.0 0.0
27/04:30pm 20.0 18.1 4.9 37 7.4 W 4 7 2 4 1022.5 1022.5 0.0
27/04:00pm 20.9 19.6 6.1 38 7.4 WSW 2 6 1 3 1022.2 1022.2 0.0
27/03:30pm 21.5 19.2 4.6 33 8.3 W 6 9 3 5 1021.9 1021.9 0.0
27/03:00pm 21.7 19.4 4.7 33 8.3 W 6 13 3 7 1021.8 1021.8 0.0
27/02:30pm 22.3 18.2 2.4 27 9.4 WSW 13 28 7 15 1021.9 1021.9 0.0
27/02:00pm 23.3 20.6 5.7 32 8.9 WSW 9 17 5 9 1021.8 1021.8 0.0
27/01:30pm 21.8 18.2 4.8 33 8.4 W 13 22 7 12 1022.0 1022.0 0.0
27/01:00pm 22.2 19.1 5.6 34 8.3 WSW 11 20 6 11 1022.3 1022.3 0.0
27/12:30pm 21.5 19.2 4.6 33 8.3 WSW 6 15 3 8 1022.7 1022.7 0.0
27/12:00pm 21.8 18.1 4.4 32 8.5 WSW 13 22 7 12 1023.1 1023.1 0.0
27/11:30am 21.3 17.6 4.4 33 8.2 W 13 22 7 12 1023.6 1023.6 0.0
27/11:00am 20.9 18.0 4.5 34 8.0 SW 9 24 5 13 1023.9 1023.9 0.0
27/10:30am 20.6 17.3 4.6 35 7.8 WSW 11 30 6 16 1024.3 1024.3 0.0
27/10:00am 20.4 18.3 5.6 38 7.3 WSW 6 13 3 7 1024.4 1024.4 0.0
27/09:30am 19.9 17.1 5.2 38 7.2 SW 9 17 5 9 1024.7 1024.7 0.0
27/09:00am 19.5 17.5 6.9 44 6.3 WSW 7 17 4 9 1024.7 1024.7 0.0
27/08:30am 18.7 17.7 8.7 52 5.2 ENE 4 9 2 5 1024.6 1024.6 0.0
27/08:00am 16.7 16.4 10.1 65 3.5 NE 2 4 1 2 1024.4 1024.4 0.0
27/07:30am 15.6 15.5 9.5 67 3.2 CALM 0 0 0 0 1024.3 1024.3 0.0
27/07:00am 14.5 13.5 8.7 68 2.9 S 4 13 2 7 1023.8 1023.8 0.0
27/06:30am 14.2 13.9 8.8 70 2.7 CALM 0 0 0 0 1023.5 1023.5 0.0
27/06:00am 14.3 13.8 9.5 73 2.5 NNW 2 4 1 2 1023.2 1023.2 0.0
27/05:30am 14.2 14.1 9.6 74 2.4 CALM 0 0 0 0 1022.8 1022.8 0.0
27/05:00am 14.6 14.5 9.6 72 2.6 CALM 0 4 0 2 1022.3 1022.3 0.0
27/04:30am 16.1 15.0 8.3 60 4.0 W 4 7 2 4 1022.1 1022.1 0.0
27/04:00am 15.9 14.8 9.8 67 3.2 W 6 7 3 4 1021.9 1021.9 0.0
27/03:30am 17.3 16.2 10.0 62 3.9 W 6 9 3 5 1021.7 1021.7 0.0
27/03:00am 17.9 17.2 11.9 68 3.3 W 7 9 4 5 1021.8 1021.8 0.0
27/02:30am 18.1 18.3 13.2 73 2.8 W 4 7 2 4 1021.8 1021.8 0.0
27/02:00am 18.1 18.6 14.0 77 2.3 SW 4 6 2 3 1021.7 1021.7 0.0
27/01:30am 18.9 19.2 14.4 75 2.6 SW 6 9 3 5 1021.8 1021.8 0.0
27/01:00am 19.0 19.9 15.1 78 2.3 SSW 4 6 2 3 1021.9 1021.9 0.0
27/12:30am 16.3 18.2 15.7 96 0.4 CALM 0 0 0 0 1021.8 1021.8 0.0
27/12:00am 16.3 18.1 15.5 95 0.5 CALM 0 0 0 0 1021.6 1021.6 0.0
 
Date/Time
EST
Temp
°C
App
Temp
°C
Dew
Point
Rel
Hum
%
Delta-T
°C
Wind Press
QNH
hPa
Press
MSL
hPa
Rain
since 9 am
mm
Dir
 
Spd
km/h
Gust
km/h
Spd
kts
Gust
kts
26/11:30pm 16.8 18.9 16.3 97 0.3 CALM 0 4 0 2 1021.7 1021.7 0.0
26/11:00pm 16.0 17.8 15.4 96 0.3 CALM 0 0 0 0 1021.8 1021.8 0.0
26/10:30pm 16.3 18.1 15.5 95 0.5 CALM 0 0 0 0 1021.9 1021.9 0.0
26/10:00pm 16.5 18.5 15.9 96 0.4 CALM 0 0 0 0 1021.8 1021.8 0.0
26/09:30pm 16.9 18.9 16.1 95 0.5 CALM 0 0 0 0 1021.7 1021.7 0.0
26/09:00pm 17.0 19.0 16.0 94 0.6 CALM 0 0 0 0 1021.4 1021.4 0.0
26/08:30pm 17.2 19.3 16.2 94 0.6 CALM 0 0 0 0 1021.2 1021.2 0.0
26/08:00pm 18.1 20.0 16.8 92 0.8 SW 2 4 1 2 1021.0 1021.0 0.0
26/07:30pm 17.9 20.1 16.6 92 0.8 CALM 0 0 0 0 1020.9 1020.9 0.0
26/07:00pm 18.4 20.6 16.6 89 1.1 CALM 0 0 0 0 1020.6 1020.6 0.0
26/06:30pm 18.9 21.2 16.7 87 1.3 CALM 0 4 0 2 1020.0 1020.0 0.0
26/06:00pm 19.6 21.7 16.3 81 2.0 CALM 0 0 0 0 1019.4 1019.4 0.0
26/05:30pm 20.3 22.4 16.3 78 2.4 CALM 0 0 0 0 1019.0 1019.0 0.0
26/05:00pm 21.3 23.5 16.5 74 2.9 CALM 0 4 0 2 1018.7 1018.7 0.0
26/04:30pm 21.7 23.9 16.4 72 3.2 CALM 0 4 0 2 1018.2 1018.2 0.0
26/04:00pm 22.1 23.6 16.6 71 3.3 S 4 6 2 3 1018.0 1018.0 0.0
26/03:30pm 22.8 24.4 16.8 69 3.7 ESE 4 9 2 5 1017.4 1017.4 0.0
26/03:00pm 23.6 23.9 16.1 62 4.6 E 9 17 5 9 1017.2 1017.2 0.0
26/02:30pm 24.6 25.7 16.6 61 4.9 ESE 6 13 3 7 1017.1 1017.1 0.0
26/02:00pm 26.9 28.2 16.2 52 6.6 SSW 4 13 2 7 1017.2 1017.2 0.0
26/01:30pm 27.4 28.2 14.8 46 7.6 N 4 9 2 5 1017.2 1017.2 0.0
26/01:00pm 27.7 28.6 16.6 50 6.9 N 7 15 4 8 1017.6 1017.6 0.0
26/12:30pm 26.9 27.8 16.5 53 6.4 N 7 15 4 8 1018.1 1018.1 0.0
26/12:00pm 26.5 26.9 15.2 49 6.8 NE 7 9 4 5 1018.8 1018.8 0.0
26/11:30am 26.2 26.1 14.0 47 7.2 NNW 7 13 4 7 1019.4 1019.4 0.0
26/11:00am 25.6 25.5 15.0 52 6.4 N 9 15 5 8 1019.9 1019.9 0.0

Other Formats:

Comma delimited format used in spreadsheet applications
http://www.bom.gov.au/fwo/IDQ60801/IDQ60801.95572.axf

JavaScript Object Notation format (JSON) in row-major order
http://www.bom.gov.au/fwo/IDQ60801/IDQ60801.95572.json